Time;durP1;ratioP1;P1;durP2;ratioP2;P2;SDS_P1;SDS_P2;PMS_P1;PMS_P2;Temp;Humidity;BMP_temperature;BMP_pressure;BME280_temperature;BME280_humidity;BME280_pressure;Samples;Min_cycle;Max_cycle;Signal;HPM_P1;HPM_P2
2023/04/09 00:03:02;;;;;;;6.57;3.45;;;;;;;16.51;56.59;100520.06;12853439;22;99094;-86
2023/04/09 00:08:06;;;;;;;6.82;3.33;;;;;;;16.78;55.29;100534.34;12861705;22;98971;-87
2023/04/09 00:13:10;;;;;;;5.20;2.90;;;;;;;16.79;55.14;100528.09;12862585;22;99005;-86
2023/04/09 00:18:14;;;;;;;5.68;3.22;;;;;;;16.18;57.64;100522.00;12859395;22;99107;-86
2023/04/09 00:23:19;;;;;;;5.72;3.33;;;;;;;16.39;56.89;100534.91;12862048;22;98022;-86
2023/04/09 00:28:26;;;;;;;5.65;3.40;;;;;;;16.76;55.98;100541.53;12861827;22;99078;-85
2023/04/09 00:33:30;;;;;;;5.25;3.42;;;;;;;16.55;56.69;100538.38;12861822;22;99216;-86
2023/04/09 00:38:37;;;;;;;7.57;3.70;;;;;;;15.95;58.73;100547.22;12860609;22;98934;-86
2023/04/09 00:43:42;;;;;;;7.47;4.15;;;;;;;16.13;58.13;100553.28;12860295;22;98994;-85
2023/04/09 00:48:45;;;;;;;5.55;3.65;;;;;;;16.18;58.20;100551.22;12859878;22;99033;-85
2023/04/09 00:53:50;;;;;;;6.15;3.30;;;;;;;16.17;57.84;100558.31;12861513;22;98856;-85
2023/04/09 00:58:57;;;;;;;5.13;3.50;;;;;;;16.13;57.60;100556.81;12860003;22;98956;-85
2023/04/09 01:04:03;;;;;;;8.50;3.22;;;;;;;16.08;57.66;100556.22;12860844;22;99192;-85
2023/04/09 01:09:14;;;;;;;4.93;3.10;;;;;;;16.06;57.56;100554.59;12857803;22;98844;-85
2023/04/09 01:14:24;;;;;;;7.70;3.20;;;;;;;16.22;57.32;100556.25;12857298;22;98272;-85
2023/04/09 01:19:41;;;;;;;4.97;3.42;;;;;;;15.85;58.36;100548.69;12860853;22;98948;-85
2023/04/09 01:24:57;;;;;;;5.43;3.28;;;;;;;16.03;57.71;100557.41;12859909;22;99078;-86
2023/04/09 01:30:04;;;;;;;5.30;3.40;;;;;;;16.14;57.05;100560.28;12859390;22;98769;-85
2023/04/09 01:35:08;;;;;;;5.88;3.38;;;;;;;16.07;57.81;100566.91;12858550;22;97681;-85
2023/04/09 01:40:12;;;;;;;7.77;3.33;;;;;;;16.04;57.74;100575.91;12858577;22;99208;-85
2023/04/09 01:45:19;;;;;;;5.00;3.45;;;;;;;15.78;58.79;100576.53;12859927;22;99251;-86
2023/04/09 01:50:23;;;;;;;4.82;3.45;;;;;;;15.14;60.26;100583.56;12858911;22;98961;-86
2023/04/09 01:55:28;;;;;;;6.95;3.45;;;;;;;15.04;60.72;100583.22;12857557;22;98399;-85
2023/04/09 02:00:36;;;;;;;6.25;3.60;;;;;;;15.02;60.72;100581.56;12856728;22;99000;-85
2023/04/09 02:05:44;;;;;;;5.65;3.58;;;;;;;14.85;60.92;100574.50;12858281;22;98989;-86
2023/04/09 02:10:54;;;;;;;5.50;3.40;;;;;;;15.30;59.86;100574.72;12861738;22;99151;-87
2023/04/09 02:15:59;;;;;;;8.68;4.05;;;;;;;15.26;60.29;100572.34;12861020;22;98573;-87
2023/04/09 02:21:06;;;;;;;5.68;3.22;;;;;;;15.17;60.76;100578.09;12860808;22;98978;-86
2023/04/09 02:26:10;;;;;;;6.45;3.85;;;;;;;15.12;61.38;100581.00;12862122;22;99028;-86
2023/04/09 02:31:14;;;;;;;4.80;3.38;;;;;;;15.09;61.36;100606.81;12861549;22;99559;-86
2023/04/09 02:36:19;;;;;;;6.28;3.67;;;;;;;15.35;60.78;100608.97;12863020;22;98878;-85
2023/04/09 02:41:24;;;;;;;5.00;3.58;;;;;;;15.25;60.98;100613.88;12862290;22;99299;-85
2023/04/09 02:46:29;;;;;;;4.57;3.30;;;;;;;15.07;61.30;100606.91;12860289;22;98981;-84
2023/04/09 02:51:34;;;;;;;5.85;3.65;;;;;;;15.34;60.82;100605.47;12860432;22;98885;-85
2023/04/09 02:56:37;;;;;;;6.32;3.75;;;;;;;15.42;60.77;100600.63;12861470;22;98964;-87
2023/04/09 03:01:47;;;;;;;5.85;3.75;;;;;;;15.37;60.87;100599.16;12859386;22;97814;-85
2023/04/09 03:06:52;;;;;;;6.78;3.83;;;;;;;15.18;61.54;100596.56;12861622;22;99074;-86
2023/04/09 03:11:56;;;;;;;5.00;3.42;;;;;;;15.13;61.88;100590.66;12860039;22;98952;-86
2023/04/09 03:17:00;;;;;;;8.10;4.20;;;;;;;15.02;61.87;100595.69;12861511;22;99156;-86
2023/04/09 03:22:05;;;;;;;6.30;3.88;;;;;;;15.03;61.51;100592.06;12858066;22;98869;-86
2023/04/09 03:27:08;;;;;;;7.33;4.17;;;;;;;14.96;62.12;100579.22;12858502;22;99163;-87
2023/04/09 03:32:15;;;;;;;4.32;3.45;;;;;;;14.93;62.22;100574.94;12858366;22;99127;-87
2023/04/09 03:37:21;;;;;;;6.35;3.80;;;;;;;14.79;62.52;100569.50;12859678;22;98880;-86
2023/04/09 03:42:27;;;;;;;5.05;3.50;;;;;;;14.65;62.97;100570.22;12860321;22;98991;-87
2023/04/09 03:47:34;;;;;;;5.50;4.00;;;;;;;14.71;62.81;100577.84;12859619;22;99186;-87
2023/04/09 03:52:39;;;;;;;6.35;3.40;;;;;;;14.79;62.50;100577.47;12860711;22;98000;-85
2023/04/09 03:57:42;;;;;;;5.47;3.65;;;;;;;14.12;64.42;100595.88;12860223;22;97982;-85
2023/04/09 04:02:51;;;;;;;5.72;3.78;;;;;;;14.25;nan;100631.38;12861072;22;98909;-85
2023/04/09 04:07:58;;;;;;;6.78;3.30;;;;;;;14.27;63.78;100652.50;12859174;22;128913;-85
2023/04/09 04:13:02;;;;;;;5.23;3.60;;;;;;;14.13;63.95;100636.41;12861239;22;98937;-86
2023/04/09 04:18:10;;;;;;;5.57;3.05;;;;;;;13.91;64.12;100625.97;12862319;22;99255;-86
2023/04/09 04:23:22;;;;;;;4.77;3.37;;;;;;;13.15;67.76;100640.97;12861388;22;98866;-86
2023/04/09 04:28:25;;;;;;;5.60;3.38;;;;;;;13.85;64.54;100628.06;12860662;22;99123;-85
2023/04/09 04:33:30;;;;;;;5.93;3.65;;;;;;;13.87;64.53;100636.75;12859625;22;99333;-85
2023/04/09 04:38:38;;;;;;;5.53;3.80;;;;;;;14.06;64.50;100650.88;12858458;22;99176;-85
2023/04/09 04:43:43;;;;;;;6.30;3.40;;;;;;;14.19;63.82;100670.53;12860410;22;98799;-86
2023/04/09 04:48:47;;;;;;;5.93;3.38;;;;;;;14.22;63.95;100675.69;12859566;22;97704;-85
2023/04/09 04:53:50;;;;;;;3.60;3.15;;;;;;;14.03;64.21;100691.56;12859402;22;98978;-85
2023/04/09 04:58:53;;;;;;;6.03;3.70;;;;;;;14.21;63.84;100689.84;12860471;22;98840;-85
2023/04/09 05:03:58;;;;;;;8.30;3.55;;;;;;;14.31;63.53;100699.06;12860079;22;99198;-85
2023/04/09 05:09:08;;;;;;;6.15;3.67;;;;;;;14.18;64.19;100697.91;12861254;22;99008;-84
2023/04/09 05:14:12;;;;;;;6.43;3.50;;;;;;;13.98;64.04;100703.25;12859604;22;99255;-84
2023/04/09 05:19:16;;;;;;;5.40;3.58;;;;;;;13.91;63.91;100713.28;12859189;22;99582;-84
2023/04/09 05:24:19;;;;;;;6.22;3.20;;;;;;;13.79;64.12;100712.97;12857380;22;98778;-85
2023/04/09 05:29:22;;;;;;;8.13;3.83;;;;;;;13.73;64.84;100702.69;12860305;22;99019;-85
2023/04/09 05:34:27;;;;;;;4.63;3.35;;;;;;;14.00;63.89;100701.41;12857934;22;97715;-84
2023/04/09 05:39:35;;;;;;;7.78;3.65;;;;;;;13.89;63.98;100698.38;12860651;22;99234;-90
2023/04/09 05:44:52;;;;;;;;;;;;;;;;;;;;;
2023/04/09 05:49:57;;;;;;;6.53;3.92;;;;;;;13.61;65.02;100696.13;12853927;22;98896;-86
2023/04/09 05:55:06;;;;;;;5.75;3.42;;;;;;;13.50;66.07;100699.25;12861300;22;98864;-86
2023/04/09 06:00:27;;;;;;;;;;;;;;;;;;;;;
2023/04/09 06:05:54;;;;;;;5.55;3.40;;;;;;;13.54;65.05;100729.94;12858750;22;98675;-86
2023/04/09 06:17:34;;;;;;;4.72;3.15;;;;;;;13.47;64.89;100744.34;12495478;23;97442;-88
2023/04/09 06:22:47;;;;;;;5.72;3.42;;;;;;;13.57;65.28;100753.59;12658960;23;100951;-89
2023/04/09 06:28:07;;;;;;;8.63;4.15;;;;;;;13.91;64.01;100752.09;12664821;23;98482;-89
2023/04/09 06:45:07;;;;;;;;;;;;;;;13.95;65.49;100790.72;12675818;22;99001;-90
2023/04/09 06:50:20;;;;;;;4.93;3.30;;;;;;;14.14;64.92;100800.44;12858867;22;100220;-88
2023/04/09 06:55:42;;;;;;;6.30;3.50;;;;;;;14.80;63.09;100791.97;12859786;22;98862;-91
2023/04/09 07:01:03;;;;;;;5.35;3.35;;;;;;;14.95;63.10;100795.69;12859070;22;101958;-90
2023/04/09 07:06:19;;;;;;;5.05;3.33;;;;;;;15.01;62.88;100784.78;12859840;22;101659;-89
2023/04/09 07:11:24;;;;;;;4.00;3.03;;;;;;;15.01;63.28;100794.53;12857314;22;98950;-90
2023/04/09 07:16:58;;;;;;;4.60;3.08;;;;;;;15.25;62.86;100802.09;12857145;22;101669;-88
2023/04/09 07:22:59;;;;;;;4.93;3.40;;;;;;;15.87;60.82;100807.75;12833473;22;99411;-87
2023/04/09 07:28:50;;;;;;;5.13;3.28;;;;;;;16.43;59.61;100814.53;12860062;22;98494;-87
2023/04/09 07:34:12;;;;;;;5.78;3.85;;;;;;;17.06;57.96;100818.91;12850574;22;98535;-88
2023/04/09 07:58:25;;;;;;;4.68;3.13;;;;;;;19.59;51.26;100826.06;12712735;22;98608;-86
2023/04/09 08:03:45;;;;;;;4.32;3.10;;;;;;;19.50;51.63;100830.22;12796852;22;98957;-91
2023/04/09 08:08:50;;;;;;;6.43;3.45;;;;;;;20.68;49.28;100835.28;12795605;22;98378;-79
2023/04/09 08:13:55;;;;;;;6.07;2.90;;;;;;;20.39;48.81;100827.50;12796928;22;98922;-78
2023/04/09 08:19:00;;;;;;;5.18;3.88;;;;;;;20.75;47.77;100825.84;12793237;22;98952;-76
2023/04/09 08:24:04;;;;;;;5.95;4.10;;;;;;;20.45;47.31;100825.38;12796171;22;98458;-87
2023/04/09 08:29:08;;;;;;;6.30;4.28;;;;;;;20.90;47.13;100828.28;12797383;22;99065;-78
2023/04/09 08:34:14;;;;;;;5.80;3.90;;;;;;;21.06;46.00;100838.72;12797457;22;98832;-79
2023/04/09 08:39:19;;;;;;;4.72;3.50;;;;;;;21.29;45.89;100836.06;12798425;22;99321;-76
2023/04/09 08:44:26;;;;;;;5.40;3.70;;;;;;;21.61;44.97;100833.66;12798808;22;98422;-82
2023/04/09 08:49:31;;;;;;;6.15;3.67;;;;;;;22.23;43.53;100835.03;12800584;22;98790;-82
2023/04/09 08:54:34;;;;;;;5.28;3.92;;;;;;;22.31;42.43;100838.00;12825523;22;98244;-82
2023/04/09 08:59:37;;;;;;;7.27;5.87;;;;;;;22.90;41.53;100841.28;12862446;22;99057;-82
2023/04/09 09:04:46;;;;;;;8.97;5.40;;;;;;;22.98;40.99;100836.16;12863608;22;98859;-82
2023/04/09 09:09:54;;;;;;;7.07;4.57;;;;;;;23.16;40.10;100839.16;12863443;22;98995;-82
2023/04/09 09:14:57;;;;;;;6.25;4.30;;;;;;;23.08;39.68;100841.59;12863086;22;98935;-82
2023/04/09 09:20:19;;;;;;;6.70;4.60;;;;;;;22.88;39.32;100829.81;12864010;22;98999;-82
2023/04/09 09:25:24;;;;;;;5.47;4.40;;;;;;;22.89;39.59;100844.94;12837262;22;97885;-82
2023/04/09 09:30:28;;;;;;;5.38;4.15;;;;;;;23.83;38.24;100837.94;12851611;22;98850;-82
2023/04/09 09:35:47;;;;;;;7.07;4.40;;;;;;;24.01;38.06;100833.69;12863954;22;98899;-82
2023/04/09 09:40:51;;;;;;;6.47;3.85;;;;;;;23.82;37.53;100830.88;12862849;22;99021;-83
2023/04/09 09:45:56;;;;;;;6.20;3.60;;;;;;;23.90;36.50;100838.25;12863078;22;98884;-83
2023/04/09 09:51:03;;;;;;;6.13;3.90;;;;;;;24.15;36.02;100845.94;12861549;22;98956;-83
2023/04/09 09:56:11;;;;;;;5.10;4.00;;;;;;;24.45;35.73;100849.53;12862728;22;99224;-83
2023/04/09 10:01:18;;;;;;;5.35;3.90;;;;;;;25.60;33.69;100856.09;12862730;22;99336;-83
2023/04/09 10:06:23;;;;;;;6.07;4.15;;;;;;;26.31;33.72;100862.84;12862676;22;98980;-82
2023/04/09 10:11:26;;;;;;;6.32;3.80;;;;;;;27.83;30.77;100865.75;12862024;22;98964;-83
2023/04/09 10:16:30;;;;;;;4.60;3.55;;;;;;;29.01;29.57;100871.31;12862582;22;98640;-83
2023/04/09 10:21:42;;;;;;;5.60;3.95;;;;;;;29.29;27.87;100873.75;12862496;22;99171;-83
2023/04/09 10:26:45;;;;;;;6.10;4.70;;;;;;;29.43;27.85;100870.41;12863410;22;98887;-83
2023/04/09 10:31:52;;;;;;;6.22;4.03;;;;;;;30.18;26.99;100884.59;12864894;22;99117;-83
2023/04/09 10:36:58;;;;;;;5.93;4.18;;;;;;;30.33;27.20;100878.47;12865018;22;99206;-83
2023/04/09 10:42:08;;;;;;;4.93;3.60;;;;;;;30.00;27.22;100883.06;12862647;22;98054;-83
2023/04/09 10:47:11;;;;;;;5.43;3.55;;;;;;;30.25;27.52;100879.31;12864067;22;97816;-83
2023/04/09 10:52:16;;;;;;;6.38;3.38;;;;;;;30.02;27.28;100886.44;12864706;22;98881;-83
2023/04/09 10:57:23;;;;;;;4.70;3.50;;;;;;;29.98;28.80;100875.09;12801309;22;98420;-83
2023/04/09 11:03:04;;;;;;;5.68;3.60;;;;;;;29.69;28.74;100865.72;12802458;22;99015;-83
2023/04/09 11:08:10;;;;;;;4.95;3.70;;;;;;;29.24;29.53;100866.13;12801719;22;98856;-83
2023/04/09 11:13:14;;;;;;;6.07;3.90;;;;;;;29.40;29.53;100866.16;12801383;22;98860;-82
2023/04/09 11:18:22;;;;;;;5.70;4.35;;;;;;;29.87;29.79;100872.69;12802035;22;99297;-83
2023/04/09 11:23:28;;;;;;;6.50;4.85;;;;;;;29.89;29.31;100875.22;12789679;22;99009;-83
2023/04/09 11:28:31;;;;;;;6.88;5.00;;;;;;;29.48;30.37;100871.63;12801739;22;99022;-83
2023/04/09 11:33:34;;;;;;;8.32;5.40;;;;;;;29.08;30.60;100858.81;12799871;22;99467;-83
2023/04/09 11:38:38;;;;;;;;;;;;;;;28.98;30.18;100852.63;12801139;22;99066;-82
2023/04/09 11:43:42;;;;;;;7.10;5.00;;;;;;;29.03;30.20;100853.03;12801455;22;98907;-82
2023/04/09 11:48:45;;;;;;;7.88;5.28;;;;;;;28.94;30.12;100851.28;12800987;22;99000;-83
2023/04/09 11:53:50;;;;;;;6.70;5.10;;;;;;;28.67;30.88;100851.47;12800843;22;99269;-83
2023/04/09 11:58:54;;;;;;;5.97;5.38;;;;;;;28.60;30.99;100853.13;12801155;22;98857;-84
2023/04/09 12:03:58;;;;;;;7.72;5.30;;;;;;;28.43;30.74;100847.78;12800835;22;98897;-83
2023/04/09 12:09:03;;;;;;;6.97;5.40;;;;;;;27.99;31.73;100842.41;12801928;22;98913;-83
2023/04/09 12:14:08;;;;;;;8.02;5.32;;;;;;;28.10;32.58;100839.41;12800773;22;99246;-83
2023/04/09 12:19:12;;;;;;;9.32;5.85;;;;;;;27.70;32.98;100835.56;12801111;22;99003;-84
2023/04/09 12:24:18;;;;;;;7.03;5.20;;;;;;;27.72;32.56;100825.41;12799304;22;98954;-82
2023/04/09 12:29:21;;;;;;;9.02;4.88;;;;;;;28.10;32.13;100831.28;12800819;22;99042;-82
2023/04/09 12:34:26;;;;;;;6.13;4.47;;;;;;;27.74;32.36;100823.41;12800887;22;99178;-83
2023/04/09 12:39:30;;;;;;;8.23;5.00;;;;;;;27.65;32.59;100827.03;12800150;22;99231;-83
2023/04/09 12:44:36;;;;;;;7.82;5.03;;;;;;;27.86;32.49;100817.59;12800609;22;99329;-82
2023/04/09 12:49:39;;;;;;;8.60;5.50;;;;;;;27.96;32.88;100820.22;12800082;22;99207;-82
2023/04/09 12:54:45;;;;;;;9.68;4.65;;;;;;;27.61;33.05;100818.38;12800395;22;98990;-83
2023/04/09 12:59:50;;;;;;;9.27;5.22;;;;;;;27.00;33.35;100814.66;12800403;22;96672;-82
2023/04/09 13:04:53;;;;;;;9.40;4.80;;;;;;;27.38;32.91;100818.97;12801008;22;99077;-82
2023/04/09 13:09:58;;;;;;;8.23;4.73;;;;;;;27.40;33.50;100815.13;12800033;22;99173;-82
2023/04/09 13:15:02;;;;;;;6.82;4.57;;;;;;;26.84;33.90;100819.88;12798075;22;98201;-83
2023/04/09 13:20:07;;;;;;;8.15;4.38;;;;;;;27.07;33.39;100810.41;12800549;22;99041;-82
2023/04/09 13:25:11;;;;;;;7.43;4.80;;;;;;;26.71;32.92;100808.59;12799829;22;99278;-82
2023/04/09 13:30:16;;;;;;;10.02;4.28;;;;;;;26.76;31.48;100809.84;12800113;22;98900;-83
2023/04/09 13:35:20;;;;;;;10.50;4.60;;;;;;;26.99;31.28;100811.09;12798709;22;97773;-82
2023/04/09 13:40:24;;;;;;;7.13;2.80;;;;;;;27.12;27.39;100809.91;12799545;22;98972;-83
2023/04/09 13:45:27;;;;;;;4.38;2.97;;;;;;;26.72;25.41;100812.97;12799959;22;99113;-83
2023/04/09 13:50:31;;;;;;;5.67;3.00;;;;;;;26.97;26.50;100814.97;12800479;22;98968;-83
2023/04/09 13:55:35;;;;;;;6.50;3.13;;;;;;;27.17;27.82;100810.31;12799278;22;99176;-82
2023/04/09 14:00:39;;;;;;;5.82;2.88;;;;;;;26.97;26.52;100813.09;12799598;22;99069;-83
2023/04/09 14:05:42;;;;;;;7.93;4.35;;;;;;;27.04;29.43;100804.44;12801177;22;99103;-82
2023/04/09 14:10:46;;;;;;;9.13;4.40;;;;;;;26.74;28.73;100805.59;12801828;22;99136;-82
2023/04/09 14:15:50;;;;;;;7.13;4.03;;;;;;;26.72;29.60;100799.47;12802088;22;98879;-83
2023/04/09 14:20:53;;;;;;;9.20;4.73;;;;;;;26.95;31.51;100798.06;12801434;22;98926;-83
2023/04/09 14:25:58;;;;;;;9.10;4.77;;;;;;;26.98;31.98;100797.75;12801989;22;99177;-82
2023/04/09 14:31:01;;;;;;;9.70;4.82;;;;;;;26.83;32.00;100792.03;12801830;22;98882;-83
2023/04/09 14:36:04;;;;;;;13.40;5.90;;;;;;;26.90;33.49;100790.41;12802106;22;99061;-83
2023/04/09 14:41:09;;;;;;;;;;;;;;;26.72;34.69;100794.06;12803139;22;97789;-82
2023/04/09 14:46:12;;;;;;;10.02;5.60;;;;;;;26.60;35.42;100789.88;12801864;22;99317;-83
2023/04/09 14:51:15;;;;;;;10.10;5.50;;;;;;;26.64;34.46;100789.44;12801390;22;99072;-82
2023/04/09 14:56:20;;;;;;;7.37;5.00;;;;;;;26.77;35.12;100789.06;12800191;22;98961;-82
2023/04/09 15:01:23;;;;;;;10.40;4.80;;;;;;;26.64;34.81;100789.44;12801616;22;99014;-83
2023/04/09 15:06:26;;;;;;;9.63;4.27;;;;;;;26.57;34.94;100790.19;12801614;22;99197;-82
2023/04/09 15:11:31;;;;;;;9.37;4.03;;;;;;;26.36;34.30;100795.81;12801140;22;98897;-82
2023/04/09 15:16:36;;;;;;;7.50;3.83;;;;;;;26.31;34.59;100791.81;12801675;22;98908;-82
2023/04/09 15:21:39;;;;;;;9.43;3.55;;;;;;;26.26;33.72;100781.47;12801469;22;99094;-83
2023/04/09 15:26:44;;;;;;;6.40;3.53;;;;;;;26.04;34.23;100787.22;12776386;22;99113;-82
2023/04/09 15:31:48;;;;;;;10.68;3.30;;;;;;;25.96;33.91;100787.09;12801726;22;99103;-82
2023/04/09 15:36:51;;;;;;;7.07;2.97;;;;;;;26.01;33.24;100789.34;12801398;22;98913;-82
2023/04/09 15:41:56;;;;;;;8.57;2.67;;;;;;;26.12;33.34;100779.25;12800905;22;99148;-82
2023/04/09 15:46:59;;;;;;;8.95;3.15;;;;;;;25.50;33.07;100779.75;12799688;22;99231;-82
2023/04/09 15:52:02;;;;;;;8.23;3.07;;;;;;;25.51;33.21;100776.06;12788878;22;99330;-82
2023/04/09 15:57:07;;;;;;;6.50;3.00;;;;;;;25.49;33.53;100786.16;12800922;22;98781;-82
2023/04/09 16:02:10;;;;;;;5.55;2.45;;;;;;;25.41;32.79;100790.53;12801003;22;98976;-82
2023/04/09 16:07:15;;;;;;;5.53;2.33;;;;;;;25.36;32.73;100791.00;12801070;22;99297;-82
2023/04/09 16:12:20;;;;;;;7.55;2.13;;;;;;;25.06;32.19;100790.22;12800350;22;99430;-81
2023/04/09 16:17:23;;;;;;;4.50;2.30;;;;;;;24.95;31.98;100788.47;12801138;22;97805;-82
2023/04/09 16:22:26;;;;;;;4.73;2.07;;;;;;;24.75;31.69;100798.38;12801567;22;98907;-82
2023/04/09 16:27:31;;;;;;;4.20;2.10;;;;;;;24.56;31.36;100794.75;12800216;22;99254;-81
2023/04/09 16:32:34;;;;;;;4.50;1.92;;;;;;;24.52;31.62;100804.94;12799818;22;97843;-82
2023/04/09 16:37:37;;;;;;;3.87;2.10;;;;;;;24.40;31.15;100806.03;12799333;22;99047;-81
2023/04/09 16:42:42;;;;;;;5.83;1.97;;;;;;;24.15;30.34;100801.03;12801358;22;98863;-81
2023/04/09 16:47:46;;;;;;;8.73;1.98;;;;;;;23.95;29.56;100815.38;12800925;22;98887;-82
2023/04/09 16:52:53;;;;;;;3.28;1.60;;;;;;;23.95;29.50;100822.56;12800328;22;99057;-82
2023/04/09 16:57:57;;;;;;;2.97;1.40;;;;;;;23.80;30.16;100818.53;12800300;22;99329;-81
2023/04/09 17:03:01;;;;;;;3.90;1.50;;;;;;;23.72;30.24;100813.78;12800415;22;99234;-81
2023/04/09 17:08:05;;;;;;;3.50;1.40;;;;;;;23.58;30.36;100825.72;12800313;22;98903;-81
2023/04/09 17:13:09;;;;;;;;;;;;;;;23.25;30.81;100827.66;12801972;22;99020;-82
2023/04/09 17:18:12;;;;;;;3.40;1.50;;;;;;;23.23;31.23;100826.94;12800417;22;98892;-82
2023/04/09 17:23:16;;;;;;;2.75;1.27;;;;;;;23.13;31.49;100839.41;12800109;22;98928;-82
2023/04/09 17:28:20;;;;;;;4.28;1.70;;;;;;;23.09;31.85;100837.94;12798640;22;97983;-81
2023/04/09 17:33:23;;;;;;;6.22;1.98;;;;;;;23.13;32.11;100837.56;12799926;22;98813;-81
2023/04/09 17:38:27;;;;;;;3.75;1.75;;;;;;;23.07;32.89;100856.88;12799037;22;99241;-80
2023/04/09 17:43:31;;;;;;;5.75;1.33;;;;;;;22.98;33.31;100862.13;12799301;22;99455;-82
2023/04/09 17:48:34;;;;;;;4.60;1.63;;;;;;;22.78;34.37;100863.75;12799930;22;99159;-81
2023/04/09 17:53:38;;;;;;;5.53;1.60;;;;;;;22.69;35.58;100877.00;12799153;22;98959;-81
2023/04/09 17:58:42;;;;;;;3.95;1.50;;;;;;;22.74;36.30;100875.66;12799573;22;99001;-81
2023/04/09 18:03:46;;;;;;;6.82;1.70;;;;;;;22.38;38.17;100876.78;12800161;22;99203;-82
2023/04/09 18:08:51;;;;;;;4.37;1.73;;;;;;;22.41;39.03;100883.69;12799187;22;99191;-81
2023/04/09 18:13:56;;;;;;;5.22;1.70;;;;;;;22.04;40.36;100885.69;12799317;22;99161;-80
2023/04/09 18:18:59;;;;;;;6.60;1.80;;;;;;;21.81;42.30;100888.41;12797425;22;99101;-81
2023/04/09 18:24:03;;;;;;;5.32;1.65;;;;;;;21.63;43.16;100898.69;12799502;22;99158;-81
2023/04/09 18:29:07;;;;;;;6.20;2.10;;;;;;;21.30;45.03;100906.53;12799214;22;99347;-81
2023/04/09 18:34:11;;;;;;;5.28;1.70;;;;;;;21.07;46.11;100912.69;12799460;22;99049;-81
2023/04/09 18:39:14;;;;;;;5.63;2.00;;;;;;;21.05;46.45;100906.59;12798975;22;99034;-80
2023/04/09 18:44:19;;;;;;;4.10;1.65;;;;;;;21.04;47.00;100907.53;12799260;22;99124;-81
2023/04/09 18:49:22;;;;;;;4.80;2.40;;;;;;;20.85;47.56;100915.19;12800489;22;99136;-80
2023/04/09 18:54:25;;;;;;;4.75;1.95;;;;;;;20.81;47.85;100916.38;12802288;22;98213;-81
2023/04/09 18:59:30;;;;;;;7.13;2.20;;;;;;;20.66;48.18;100922.78;12802507;22;99481;-81
2023/04/09 19:04:37;;;;;;;5.05;2.00;;;;;;;20.54;48.53;100918.31;12801396;22;99157;-81
2023/04/09 19:09:43;;;;;;;5.97;2.10;;;;;;;20.27;49.32;100924.56;12800260;22;99014;-81
2023/04/09 19:14:48;;;;;;;6.32;2.08;;;;;;;20.31;49.44;100930.59;12801757;22;99170;-81
2023/04/09 19:19:51;;;;;;;5.90;2.30;;;;;;;20.12;49.49;100936.31;12801741;22;99165;-81
2023/04/09 19:24:54;;;;;;;6.35;2.10;;;;;;;19.95;50.41;100933.94;12801677;22;99557;-80
2023/04/09 19:29:59;;;;;;;4.95;2.28;;;;;;;19.64;51.54;100950.28;12801477;22;99064;-81
2023/04/09 19:35:03;;;;;;;6.55;2.75;;;;;;;19.60;51.90;100958.59;12801498;22;99406;-80
2023/04/09 19:40:07;;;;;;;6.78;2.30;;;;;;;19.43;52.49;100967.72;12801112;22;99030;-80
2023/04/09 19:45:13;;;;;;;7.13;2.40;;;;;;;19.37;52.97;100970.75;12802261;22;98911;-81
2023/04/09 19:50:16;;;;;;;6.40;2.63;;;;;;;19.35;53.30;100977.13;12800900;22;98967;-81
2023/04/09 19:55:20;;;;;;;6.97;2.33;;;;;;;19.16;53.99;100975.63;12800972;22;98976;-81
2023/04/09 20:00:25;;;;;;;8.37;3.17;;;;;;;19.14;53.85;101001.56;12799932;22;99281;-80
2023/04/09 20:05:29;;;;;;;7.18;2.70;;;;;;;19.00;54.57;101006.91;12801210;22;98893;-80
2023/04/09 20:10:34;;;;;;;7.73;2.80;;;;;;;18.90;55.36;101003.09;12800968;22;99280;-80
2023/04/09 20:15:38;;;;;;;7.20;3.22;;;;;;;18.75;55.50;101020.03;12801127;22;98906;-80
2023/04/09 20:20:42;;;;;;;9.25;3.00;;;;;;;18.59;55.63;101037.91;12801262;22;98968;-80
2023/04/09 20:25:45;;;;;;;8.65;3.05;;;;;;;18.40;56.40;101041.75;12800862;22;99235;-80
2023/04/09 20:30:50;;;;;;;7.03;3.28;;;;;;;18.38;56.63;101047.16;12801176;22;99135;-80
2023/04/09 20:35:53;;;;;;;7.85;2.85;;;;;;;18.21;56.52;101054.41;12801755;22;98955;-80
2023/04/09 20:40:57;;;;;;;6.78;3.35;;;;;;;18.04;56.33;101058.91;12800755;22;97839;-80
2023/04/09 20:46:02;;;;;;;6.28;2.85;;;;;;;17.98;56.82;101066.41;12801017;22;99195;-80
2023/04/09 20:51:09;;;;;;;7.72;3.30;;;;;;;17.93;57.33;101066.66;12799654;22;98955;-80
2023/04/09 20:56:12;;;;;;;9.18;3.03;;;;;;;17.90;57.71;101076.63;12800835;22;99184;-80
2023/04/09 21:01:18;;;;;;;7.40;3.05;;;;;;;17.91;56.98;101068.56;12800737;22;98911;-80
2023/04/09 21:06:21;;;;;;;7.75;2.72;;;;;;;17.84;56.91;101092.94;12800739;22;99361;-80
2023/04/09 21:11:24;;;;;;;5.85;2.70;;;;;;;17.65;56.94;101090.47;12800183;22;99009;-80
2023/04/09 21:16:29;;;;;;;6.13;2.92;;;;;;;17.55;57.29;101085.72;12800488;22;99238;-80
2023/04/09 21:21:33;;;;;;;5.78;2.90;;;;;;;17.63;57.13;101081.69;12800409;22;99216;-80
2023/04/09 21:26:36;;;;;;;9.20;2.97;;;;;;;17.45;57.98;101095.13;12801159;22;99202;-80
2023/04/09 21:31:54;;;;;;;7.35;2.58;;;;;;;17.44;57.83;101101.38;12800570;22;98985;-80
2023/04/09 21:36:58;;;;;;;7.53;2.80;;;;;;;17.51;57.28;101111.66;12799994;22;99509;-80
2023/04/09 21:42:01;;;;;;;7.65;3.03;;;;;;;17.28;57.65;101105.78;12798573;22;99029;-80
2023/04/09 21:47:07;;;;;;;6.40;2.70;;;;;;;16.82;59.37;101110.91;12799259;22;98091;-80
2023/04/09 21:52:13;;;;;;;8.90;2.47;;;;;;;17.03;58.51;101115.06;12800401;22;99219;-80
2023/04/09 21:57:17;;;;;;;4.68;2.60;;;;;;;16.71;59.44;101133.63;12799620;22;99040;-80
2023/04/09 22:02:22;;;;;;;6.18;2.60;;;;;;;16.81;58.88;101137.53;12799883;22;98969;-80
2023/04/09 22:07:25;;;;;;;9.73;2.90;;;;;;;16.68;59.41;101134.66;12799632;22;98906;-80
2023/04/09 22:12:28;;;;;;;6.38;2.90;;;;;;;16.52;59.59;101160.28;12799408;22;99016;-80
2023/04/09 22:17:33;;;;;;;7.05;3.17;;;;;;;16.53;59.88;101166.47;12800189;22;99231;-80
2023/04/09 22:22:37;;;;;;;;;;;;;;;16.26;60.43;101163.31;12799859;22;99098;-80
2023/04/09 22:27:40;;;;;;;7.82;3.08;;;;;;;16.22;60.56;101153.75;12802302;22;98942;-80
2023/04/09 22:32:45;;;;;;;6.97;3.50;;;;;;;16.50;59.76;101164.78;12801086;22;98923;-80
2023/04/09 22:37:48;;;;;;;6.45;3.17;;;;;;;16.60;60.28;101150.13;12801905;22;98843;-80
2023/04/09 22:42:51;;;;;;;10.65;3.30;;;;;;;16.44;60.56;101161.59;12801538;22;98983;-80
2023/04/09 22:47:56;;;;;;;6.15;3.47;;;;;;;16.39;61.16;101158.25;12802599;22;98888;-80
2023/04/09 22:53:00;;;;;;;7.95;2.92;;;;;;;16.26;60.53;101160.66;12801795;22;98928;-80
2023/04/09 22:58:04;;;;;;;9.10;2.83;;;;;;;16.34;60.06;101166.44;12801824;22;99061;-80
2023/04/09 23:03:09;;;;;;;5.95;2.80;;;;;;;16.47;59.91;101170.28;12801924;22;98852;-80
2023/04/09 23:08:12;;;;;;;7.53;3.00;;;;;;;15.88;60.99;101173.09;12802675;22;99207;-80
2023/04/09 23:13:16;;;;;;;6.85;3.50;;;;;;;15.86;61.24;101164.34;12801359;22;99096;-81
2023/04/09 23:18:21;;;;;;;6.13;3.60;;;;;;;15.78;60.81;101165.63;12802188;22;98913;-80
2023/04/09 23:23:24;;;;;;;;;;;;;;;15.56;62.23;101155.13;12800847;22;98994;-80
2023/04/09 23:28:28;;;;;;;11.43;3.90;;;;;;;15.63;61.55;101156.56;12801478;22;97887;-80
2023/04/09 23:33:33;;;;;;;7.82;3.40;;;;;;;15.60;61.72;101153.19;12801416;22;99084;-80
2023/04/09 23:38:38;;;;;;;6.00;3.28;;;;;;;15.69;61.36;101148.34;12801155;22;98010;-80
2023/04/09 23:43:42;;;;;;;7.45;3.60;;;;;;;15.14;63.57;101142.91;12801316;22;99124;-80
2023/04/09 23:48:46;;;;;;;6.60;3.42;;;;;;;15.12;63.49;101143.00;12801196;22;99021;-80
2023/04/09 23:53:50;;;;;;;6.38;3.40;;;;;;;15.51;61.94;101153.66;12801142;22;99266;-80
2023/04/09 23:58:53;;;;;;;6.25;3.30;;;;;;;15.69;61.20;101153.66;12802256;22;98939;-80
